sensor_id;sensor_type;location;lat;lon;timestamp;P1;durP1;ratioP1;P2;durP2;ratioP2
40997;SDS011;26740;45.944;12.480;2023-07-31T00:02:18;1.77;;;0.80;;
40997;SDS011;26740;45.944;12.480;2023-07-31T00:04:44;2.88;;;0.95;;
40997;SDS011;26740;45.944;12.480;2023-07-31T00:07:09;9.02;;;1.10;;
40997;SDS011;26740;45.944;12.480;2023-07-31T00:09:34;7.45;;;0.90;;
40997;SDS011;26740;45.944;12.480;2023-07-31T00:12:00;2.40;;;0.60;;
40997;SDS011;26740;45.944;12.480;2023-07-31T00:14:25;5.15;;;0.95;;
40997;SDS011;26740;45.944;12.480;2023-07-31T00:16:50;4.20;;;0.70;;
40997;SDS011;26740;45.944;12.480;2023-07-31T00:19:16;7.18;;;0.90;;
40997;SDS011;26740;45.944;12.480;2023-07-31T00:21:41;3.42;;;0.60;;
40997;SDS011;26740;45.944;12.480;2023-07-31T00:24:07;8.30;;;1.40;;
40997;SDS011;26740;45.944;12.480;2023-07-31T00:26:32;9.10;;;1.17;;
40997;SDS011;26740;45.944;12.480;2023-07-31T00:28:58;6.25;;;0.82;;
40997;SDS011;26740;45.944;12.480;2023-07-31T00:31:23;0.52;;;0.50;;
40997;SDS011;26740;45.944;12.480;2023-07-31T00:33:48;11.20;;;2.17;;
40997;SDS011;26740;45.944;12.480;2023-07-31T00:36:14;7.18;;;0.95;;
40997;SDS011;26740;45.944;12.480;2023-07-31T00:38:39;2.50;;;0.75;;
40997;SDS011;26740;45.944;12.480;2023-07-31T00:41:04;9.05;;;0.90;;
40997;SDS011;26740;45.944;12.480;2023-07-31T00:43:30;3.60;;;0.77;;
40997;SDS011;26740;45.944;12.480;2023-07-31T00:45:55;1.58;;;0.40;;
40997;SDS011;26740;45.944;12.480;2023-07-31T00:48:21;2.65;;;0.60;;
40997;SDS011;26740;45.944;12.480;2023-07-31T00:50:46;4.13;;;0.60;;
40997;SDS011;26740;45.944;12.480;2023-07-31T00:53:12;14.75;;;1.20;;
40997;SDS011;26740;45.944;12.480;2023-07-31T00:55:38;6.38;;;1.48;;
40997;SDS011;26740;45.944;12.480;2023-07-31T00:58:03;6.97;;;0.70;;
40997;SDS011;26740;45.944;12.480;2023-07-31T01:00:28;4.85;;;0.73;;
40997;SDS011;26740;45.944;12.480;2023-07-31T01:02:54;8.20;;;0.73;;
40997;SDS011;26740;45.944;12.480;2023-07-31T01:05:20;10.18;;;4.03;;
40997;SDS011;26740;45.944;12.480;2023-07-31T01:10:22;14.32;;;4.78;;
40997;SDS011;26740;45.944;12.480;2023-07-31T01:12:50;11.10;;;4.28;;
40997;SDS011;26740;45.944;12.480;2023-07-31T01:15:16;15.98;;;4.47;;
40997;SDS011;26740;45.944;12.480;2023-07-31T01:17:42;12.07;;;4.47;;
40997;SDS011;26740;45.944;12.480;2023-07-31T01:20:12;14.93;;;4.82;;
40997;SDS011;26740;45.944;12.480;2023-07-31T01:31:44;13.23;;;2.50;;
40997;SDS011;26740;45.944;12.480;2023-07-31T01:34:11;12.98;;;2.67;;
40997;SDS011;26740;45.944;12.480;2023-07-31T01:36:38;7.07;;;1.75;;
40997;SDS011;26740;45.944;12.480;2023-07-31T01:39:03;16.85;;;3.17;;
40997;SDS011;26740;45.944;12.480;2023-07-31T01:41:29;7.32;;;2.58;;
40997;SDS011;26740;45.944;12.480;2023-07-31T01:43:54;8.50;;;1.90;;
40997;SDS011;26740;45.944;12.480;2023-07-31T01:46:20;13.82;;;2.33;;
40997;SDS011;26740;45.944;12.480;2023-07-31T01:48:45;17.08;;;2.45;;
40997;SDS011;26740;45.944;12.480;2023-07-31T01:51:10;11.38;;;2.50;;
40997;SDS011;26740;45.944;12.480;2023-07-31T01:53:36;8.73;;;2.03;;
40997;SDS011;26740;45.944;12.480;2023-07-31T01:56:01;17.70;;;2.63;;
40997;SDS011;26740;45.944;12.480;2023-07-31T01:58:27;5.30;;;0.98;;
40997;SDS011;26740;45.944;12.480;2023-07-31T02:00:52;3.53;;;0.70;;
40997;SDS011;26740;45.944;12.480;2023-07-31T02:03:17;7.28;;;0.82;;
40997;SDS011;26740;45.944;12.480;2023-07-31T02:05:49;6.18;;;0.60;;
40997;SDS011;26740;45.944;12.480;2023-07-31T02:08:15;11.88;;;1.20;;
40997;SDS011;26740;45.944;12.480;2023-07-31T02:10:40;5.95;;;0.82;;
40997;SDS011;26740;45.944;12.480;2023-07-31T02:13:06;10.90;;;1.67;;
40997;SDS011;26740;45.944;12.480;2023-07-31T02:15:32;6.32;;;0.75;;
40997;SDS011;26740;45.944;12.480;2023-07-31T02:17:57;9.85;;;1.35;;
40997;SDS011;26740;45.944;12.480;2023-07-31T02:20:23;8.38;;;0.77;;
40997;SDS011;26740;45.944;12.480;2023-07-31T02:22:48;8.45;;;0.90;;
40997;SDS011;26740;45.944;12.480;2023-07-31T02:25:13;12.70;;;1.00;;
40997;SDS011;26740;45.944;12.480;2023-07-31T02:27:39;8.52;;;0.77;;
40997;SDS011;26740;45.944;12.480;2023-07-31T02:30:05;3.95;;;0.95;;
40997;SDS011;26740;45.944;12.480;2023-07-31T02:32:30;3.40;;;0.55;;
40997;SDS011;26740;45.944;12.480;2023-07-31T02:34:55;10.85;;;0.73;;
40997;SDS011;26740;45.944;12.480;2023-07-31T02:37:21;7.13;;;0.70;;
40997;SDS011;26740;45.944;12.480;2023-07-31T02:39:46;6.45;;;1.77;;
40997;SDS011;26740;45.944;12.480;2023-07-31T02:42:12;6.28;;;1.17;;
40997;SDS011;26740;45.944;12.480;2023-07-31T02:44:38;5.22;;;0.75;;
40997;SDS011;26740;45.944;12.480;2023-07-31T02:47:03;1.35;;;0.50;;
40997;SDS011;26740;45.944;12.480;2023-07-31T02:49:28;7.50;;;0.85;;
40997;SDS011;26740;45.944;12.480;2023-07-31T02:51:54;3.22;;;0.43;;
40997;SDS011;26740;45.944;12.480;2023-07-31T02:54:19;5.70;;;0.80;;
40997;SDS011;26740;45.944;12.480;2023-07-31T02:56:46;4.93;;;0.70;;
40997;SDS011;26740;45.944;12.480;2023-07-31T02:59:12;3.88;;;0.90;;
40997;SDS011;26740;45.944;12.480;2023-07-31T03:01:37;3.65;;;0.50;;
40997;SDS011;26740;45.944;12.480;2023-07-31T03:04:03;1.70;;;0.60;;
40997;SDS011;26740;45.944;12.480;2023-07-31T03:06:28;4.25;;;0.70;;
40997;SDS011;26740;45.944;12.480;2023-07-31T03:08:54;6.40;;;0.93;;
40997;SDS011;26740;45.944;12.480;2023-07-31T03:11:19;6.82;;;0.65;;
40997;SDS011;26740;45.944;12.480;2023-07-31T03:13:45;4.15;;;0.52;;
40997;SDS011;26740;45.944;12.480;2023-07-31T03:16:10;7.07;;;0.88;;
40997;SDS011;26740;45.944;12.480;2023-07-31T03:18:36;2.53;;;0.55;;
40997;SDS011;26740;45.944;12.480;2023-07-31T03:21:01;11.52;;;0.63;;
40997;SDS011;26740;45.944;12.480;2023-07-31T03:23:26;6.35;;;1.25;;
40997;SDS011;26740;45.944;12.480;2023-07-31T03:25:58;4.85;;;0.50;;
40997;SDS011;26740;45.944;12.480;2023-07-31T03:28:24;6.18;;;0.43;;
40997;SDS011;26740;45.944;12.480;2023-07-31T03:30:49;3.00;;;0.30;;
40997;SDS011;26740;45.944;12.480;2023-07-31T03:33:14;5.90;;;0.57;;
40997;SDS011;26740;45.944;12.480;2023-07-31T03:35:40;8.20;;;0.40;;
40997;SDS011;26740;45.944;12.480;2023-07-31T03:38:05;1.40;;;0.40;;
40997;SDS011;26740;45.944;12.480;2023-07-31T03:40:31;2.15;;;0.30;;
40997;SDS011;26740;45.944;12.480;2023-07-31T03:42:56;2.70;;;0.30;;
40997;SDS011;26740;45.944;12.480;2023-07-31T03:45:21;2.97;;;0.20;;
40997;SDS011;26740;45.944;12.480;2023-07-31T03:47:47;3.70;;;0.50;;
40997;SDS011;26740;45.944;12.480;2023-07-31T03:50:12;3.67;;;0.32;;
40997;SDS011;26740;45.944;12.480;2023-07-31T03:52:38;4.13;;;0.38;;
40997;SDS011;26740;45.944;12.480;2023-07-31T03:55:03;11.20;;;0.70;;
40997;SDS011;26740;45.944;12.480;2023-07-31T03:57:29;2.30;;;0.60;;
40997;SDS011;26740;45.944;12.480;2023-07-31T03:59:54;2.88;;;0.60;;
40997;SDS011;26740;45.944;12.480;2023-07-31T04:02:19;3.13;;;0.28;;
40997;SDS011;26740;45.944;12.480;2023-07-31T04:04:45;1.60;;;0.25;;
40997;SDS011;26740;45.944;12.480;2023-07-31T04:07:10;6.28;;;0.65;;
40997;SDS011;26740;45.944;12.480;2023-07-31T04:09:35;4.05;;;1.15;;
40997;SDS011;26740;45.944;12.480;2023-07-31T04:12:01;2.05;;;0.20;;
40997;SDS011;26740;45.944;12.480;2023-07-31T04:14:26;2.00;;;0.20;;
40997;SDS011;26740;45.944;12.480;2023-07-31T04:16:52;6.18;;;0.60;;
40997;SDS011;26740;45.944;12.480;2023-07-31T04:19:17;0.60;;;0.20;;
40997;SDS011;26740;45.944;12.480;2023-07-31T04:21:43;2.78;;;0.30;;
40997;SDS011;26740;45.944;12.480;2023-07-31T04:24:08;1.20;;;0.25;;
40997;SDS011;26740;45.944;12.480;2023-07-31T04:26:34;1.80;;;0.30;;
40997;SDS011;26740;45.944;12.480;2023-07-31T04:28:59;1.13;;;0.30;;
40997;SDS011;26740;45.944;12.480;2023-07-31T04:31:25;1.80;;;0.30;;
40997;SDS011;26740;45.944;12.480;2023-07-31T04:33:50;1.10;;;0.20;;
40997;SDS011;26740;45.944;12.480;2023-07-31T04:36:15;2.47;;;0.38;;
40997;SDS011;26740;45.944;12.480;2023-07-31T04:38:41;4.45;;;0.68;;
40997;SDS011;26740;45.944;12.480;2023-07-31T04:41:06;1.02;;;0.20;;
40997;SDS011;26740;45.944;12.480;2023-07-31T04:43:32;1.15;;;0.13;;
40997;SDS011;26740;45.944;12.480;2023-07-31T04:45:57;0.77;;;0.20;;
40997;SDS011;26740;45.944;12.480;2023-07-31T04:48:23;2.88;;;0.20;;
40997;SDS011;26740;45.944;12.480;2023-07-31T04:50:48;1.00;;;0.20;;
40997;SDS011;26740;45.944;12.480;2023-07-31T04:53:14;2.55;;;0.20;;
40997;SDS011;26740;45.944;12.480;2023-07-31T04:55:39;1.58;;;0.20;;
40997;SDS011;26740;45.944;12.480;2023-07-31T04:58:05;0.17;;;0.10;;
40997;SDS011;26740;45.944;12.480;2023-07-31T05:00:30;1.88;;;0.20;;
40997;SDS011;26740;45.944;12.480;2023-07-31T05:02:56;1.17;;;0.20;;
40997;SDS011;26740;45.944;12.480;2023-07-31T05:05:21;0.85;;;0.20;;
40997;SDS011;26740;45.944;12.480;2023-07-31T05:07:47;1.05;;;0.20;;
40997;SDS011;26740;45.944;12.480;2023-07-31T05:10:12;0.30;;;0.10;;
40997;SDS011;26740;45.944;12.480;2023-07-31T05:12:37;0.50;;;0.10;;
40997;SDS011;26740;45.944;12.480;2023-07-31T05:15:03;1.67;;;0.13;;
40997;SDS011;26740;45.944;12.480;2023-07-31T05:17:28;0.50;;;0.10;;
40997;SDS011;26740;45.944;12.480;2023-07-31T05:19:54;0.40;;;0.15;;
40997;SDS011;26740;45.944;12.480;2023-07-31T05:22:19;2.38;;;0.10;;
40997;SDS011;26740;45.944;12.480;2023-07-31T05:24:45;2.42;;;0.10;;
40997;SDS011;26740;45.944;12.480;2023-07-31T05:27:10;0.32;;;0.10;;
40997;SDS011;26740;45.944;12.480;2023-07-31T05:29:37;2.63;;;0.20;;
40997;SDS011;26740;45.944;12.480;2023-07-31T05:32:02;1.10;;;0.08;;
40997;SDS011;26740;45.944;12.480;2023-07-31T05:34:28;0.55;;;0.15;;
40997;SDS011;26740;45.944;12.480;2023-07-31T05:36:53;0.35;;;0.20;;
40997;SDS011;26740;45.944;12.480;2023-07-31T05:39:19;2.13;;;0.20;;
40997;SDS011;26740;45.944;12.480;2023-07-31T05:41:45;1.08;;;0.10;;
40997;SDS011;26740;45.944;12.480;2023-07-31T05:44:10;3.03;;;0.40;;
40997;SDS011;26740;45.944;12.480;2023-07-31T05:46:35;1.10;;;0.10;;
40997;SDS011;26740;45.944;12.480;2023-07-31T05:49:01;1.63;;;0.20;;
40997;SDS011;26740;45.944;12.480;2023-07-31T05:51:26;1.48;;;0.10;;
40997;SDS011;26740;45.944;12.480;2023-07-31T05:53:52;1.20;;;0.10;;
40997;SDS011;26740;45.944;12.480;2023-07-31T05:56:18;0.73;;;0.10;;
40997;SDS011;26740;45.944;12.480;2023-07-31T05:58:43;0.60;;;0.20;;
40997;SDS011;26740;45.944;12.480;2023-07-31T06:01:09;0.73;;;0.17;;
40997;SDS011;26740;45.944;12.480;2023-07-31T06:03:34;1.10;;;0.30;;
40997;SDS011;26740;45.944;12.480;2023-07-31T06:05:59;1.45;;;0.10;;
40997;SDS011;26740;45.944;12.480;2023-07-31T06:08:25;0.28;;;0.10;;
40997;SDS011;26740;45.944;12.480;2023-07-31T06:10:50;2.30;;;0.10;;
40997;SDS011;26740;45.944;12.480;2023-07-31T06:13:16;3.22;;;0.20;;
40997;SDS011;26740;45.944;12.480;2023-07-31T06:15:41;1.27;;;0.10;;
40997;SDS011;26740;45.944;12.480;2023-07-31T06:18:06;0.63;;;0.20;;
40997;SDS011;26740;45.944;12.480;2023-07-31T06:20:35;1.13;;;0.10;;
40997;SDS011;26740;45.944;12.480;2023-07-31T06:23:01;0.73;;;0.10;;
40997;SDS011;26740;45.944;12.480;2023-07-31T06:25:26;1.40;;;0.10;;
40997;SDS011;26740;45.944;12.480;2023-07-31T06:27:52;1.23;;;0.25;;
40997;SDS011;26740;45.944;12.480;2023-07-31T06:30:17;1.98;;;0.10;;
40997;SDS011;26740;45.944;12.480;2023-07-31T06:32:42;0.75;;;0.17;;
40997;SDS011;26740;45.944;12.480;2023-07-31T06:35:08;0.20;;;0.10;;
40997;SDS011;26740;45.944;12.480;2023-07-31T06:37:34;0.20;;;0.13;;
40997;SDS011;26740;45.944;12.480;2023-07-31T06:39:59;0.30;;;0.10;;
40997;SDS011;26740;45.944;12.480;2023-07-31T06:42:24;0.55;;;0.10;;
40997;SDS011;26740;45.944;12.480;2023-07-31T06:44:50;0.30;;;0.10;;
40997;SDS011;26740;45.944;12.480;2023-07-31T06:47:15;1.67;;;0.10;;
40997;SDS011;26740;45.944;12.480;2023-07-31T06:49:41;0.38;;;0.10;;
40997;SDS011;26740;45.944;12.480;2023-07-31T06:52:06;1.98;;;0.20;;
40997;SDS011;26740;45.944;12.480;2023-07-31T06:54:32;0.43;;;0.10;;
40997;SDS011;26740;45.944;12.480;2023-07-31T06:56:57;0.30;;;0.20;;
40997;SDS011;26740;45.944;12.480;2023-07-31T06:59:23;0.40;;;0.10;;
40997;SDS011;26740;45.944;12.480;2023-07-31T07:01:48;0.30;;;0.20;;
40997;SDS011;26740;45.944;12.480;2023-07-31T07:04:14;1.95;;;0.20;;
40997;SDS011;26740;45.944;12.480;2023-07-31T07:06:39;0.28;;;0.00;;
40997;SDS011;26740;45.944;12.480;2023-07-31T07:09:05;0.20;;;0.10;;
40997;SDS011;26740;45.944;12.480;2023-07-31T07:11:30;1.45;;;0.60;;
40997;SDS011;26740;45.944;12.480;2023-07-31T07:13:56;0.75;;;0.10;;
40997;SDS011;26740;45.944;12.480;2023-07-31T07:16:21;0.20;;;0.10;;
40997;SDS011;26740;45.944;12.480;2023-07-31T07:18:47;0.20;;;0.10;;
40997;SDS011;26740;45.944;12.480;2023-07-31T07:21:12;2.45;;;0.10;;
40997;SDS011;26740;45.944;12.480;2023-07-31T07:23:41;0.10;;;0.10;;
40997;SDS011;26740;45.944;12.480;2023-07-31T07:26:06;0.52;;;0.10;;
40997;SDS011;26740;45.944;12.480;2023-07-31T07:28:32;0.60;;;0.15;;
40997;SDS011;26740;45.944;12.480;2023-07-31T07:30:57;1.23;;;0.15;;
40997;SDS011;26740;45.944;12.480;2023-07-31T07:33:23;0.90;;;0.10;;
40997;SDS011;26740;45.944;12.480;2023-07-31T07:35:48;0.28;;;0.10;;
40997;SDS011;26740;45.944;12.480;2023-07-31T07:38:14;0.32;;;0.20;;
40997;SDS011;26740;45.944;12.480;2023-07-31T07:40:44;1.38;;;0.60;;
40997;SDS011;26740;45.944;12.480;2023-07-31T07:43:12;5.30;;;4.85;;
40997;SDS011;26740;45.944;12.480;2023-07-31T07:45:37;5.45;;;4.85;;
40997;SDS011;26740;45.944;12.480;2023-07-31T07:48:02;1.75;;;1.27;;
40997;SDS011;26740;45.944;12.480;2023-07-31T07:50:28;0.30;;;0.20;;
40997;SDS011;26740;45.944;12.480;2023-07-31T07:52:53;1.05;;;0.10;;
40997;SDS011;26740;45.944;12.480;2023-07-31T07:55:19;1.75;;;0.20;;
40997;SDS011;26740;45.944;12.480;2023-07-31T07:57:44;1.55;;;0.30;;
40997;SDS011;26740;45.944;12.480;2023-07-31T08:00:10;1.38;;;0.13;;
40997;SDS011;26740;45.944;12.480;2023-07-31T08:02:35;0.65;;;0.10;;
40997;SDS011;26740;45.944;12.480;2023-07-31T08:05:01;2.28;;;0.25;;
40997;SDS011;26740;45.944;12.480;2023-07-31T08:07:26;0.80;;;0.80;;
40997;SDS011;26740;45.944;12.480;2023-07-31T08:09:52;1.20;;;1.10;;
40997;SDS011;26740;45.944;12.480;2023-07-31T08:12:17;0.75;;;0.43;;
40997;SDS011;26740;45.944;12.480;2023-07-31T08:20:13;3.33;;;0.40;;
40997;SDS011;26740;45.944;12.480;2023-07-31T08:22:41;1.55;;;0.80;;
40997;SDS011;26740;45.944;12.480;2023-07-31T08:25:07;1.88;;;1.10;;
40997;SDS011;26740;45.944;12.480;2023-07-31T08:27:32;2.50;;;2.00;;
40997;SDS011;26740;45.944;12.480;2023-07-31T08:29:58;2.20;;;1.70;;
40997;SDS011;26740;45.944;12.480;2023-07-31T08:32:23;0.40;;;0.10;;
40997;SDS011;26740;45.944;12.480;2023-07-31T08:34:49;0.60;;;0.50;;
40997;SDS011;26740;45.944;12.480;2023-07-31T08:37:14;1.15;;;0.20;;
40997;SDS011;26740;45.944;12.480;2023-07-31T08:39:39;2.08;;;0.40;;
40997;SDS011;26740;45.944;12.480;2023-07-31T08:42:07;0.50;;;0.20;;
40997;SDS011;26740;45.944;12.480;2023-07-31T08:44:33;0.63;;;0.40;;
40997;SDS011;26740;45.944;12.480;2023-07-31T08:46:59;4.65;;;4.25;;
40997;SDS011;26740;45.944;12.480;2023-07-31T08:49:24;1.77;;;0.55;;
40997;SDS011;26740;45.944;12.480;2023-07-31T08:51:50;1.08;;;0.30;;
40997;SDS011;26740;45.944;12.480;2023-07-31T08:54:17;0.60;;;0.20;;
40997;SDS011;26740;45.944;12.480;2023-07-31T08:56:43;2.15;;;1.95;;
40997;SDS011;26740;45.944;12.480;2023-07-31T08:59:08;0.93;;;0.10;;
40997;SDS011;26740;45.944;12.480;2023-07-31T09:01:36;1.00;;;0.20;;
40997;SDS011;26740;45.944;12.480;2023-07-31T09:04:05;1.02;;;0.20;;
40997;SDS011;26740;45.944;12.480;2023-07-31T09:06:30;4.18;;;2.90;;
40997;SDS011;26740;45.944;12.480;2023-07-31T09:08:56;3.55;;;0.25;;
40997;SDS011;26740;45.944;12.480;2023-07-31T09:11:22;0.95;;;0.20;;
40997;SDS011;26740;45.944;12.480;2023-07-31T09:13:49;0.75;;;0.20;;
40997;SDS011;26740;45.944;12.480;2023-07-31T09:16:14;4.75;;;2.10;;
40997;SDS011;26740;45.944;12.480;2023-07-31T09:18:53;1.48;;;0.60;;
40997;SDS011;26740;45.944;12.480;2023-07-31T09:21:18;4.53;;;2.33;;
40997;SDS011;26740;45.944;12.480;2023-07-31T09:23:44;1.20;;;0.30;;
40997;SDS011;26740;45.944;12.480;2023-07-31T09:26:10;0.88;;;0.20;;
40997;SDS011;26740;45.944;12.480;2023-07-31T09:28:36;5.65;;;3.22;;
40997;SDS011;26740;45.944;12.480;2023-07-31T09:31:01;2.17;;;1.98;;
40997;SDS011;26740;45.944;12.480;2023-07-31T09:33:27;12.73;;;8.60;;
40997;SDS011;26740;45.944;12.480;2023-07-31T09:35:58;0.53;;;0.20;;
40997;SDS011;26740;45.944;12.480;2023-07-31T09:38:23;1.35;;;1.05;;
40997;SDS011;26740;45.944;12.480;2023-07-31T09:40:49;0.60;;;0.50;;
40997;SDS011;26740;45.944;12.480;2023-07-31T09:43:18;0.80;;;0.60;;
40997;SDS011;26740;45.944;12.480;2023-07-31T09:45:44;0.77;;;0.77;;
40997;SDS011;26740;45.944;12.480;2023-07-31T09:48:14;0.82;;;0.20;;
40997;SDS011;26740;45.944;12.480;2023-07-31T09:50:43;0.13;;;0.13;;
40997;SDS011;26740;45.944;12.480;2023-07-31T09:53:09;2.47;;;0.20;;
40997;SDS011;26740;45.944;12.480;2023-07-31T09:55:35;0.10;;;0.10;;
40997;SDS011;26740;45.944;12.480;2023-07-31T09:58:04;1.25;;;0.20;;
40997;SDS011;26740;45.944;12.480;2023-07-31T10:00:30;0.35;;;0.10;;
40997;SDS011;26740;45.944;12.480;2023-07-31T10:02:58;0.38;;;0.22;;
40997;SDS011;26740;45.944;12.480;2023-07-31T10:05:23;0.10;;;0.10;;
40997;SDS011;26740;45.944;12.480;2023-07-31T10:07:53;0.38;;;0.17;;
40997;SDS011;26740;45.944;12.480;2023-07-31T10:10:20;1.65;;;0.20;;
40997;SDS011;26740;45.944;12.480;2023-07-31T10:12:45;0.50;;;0.10;;
40997;SDS011;26740;45.944;12.480;2023-07-31T10:15:11;1.50;;;0.10;;
40997;SDS011;26740;45.944;12.480;2023-07-31T10:17:37;0.65;;;0.20;;
40997;SDS011;26740;45.944;12.480;2023-07-31T10:20:03;0.22;;;0.10;;
40997;SDS011;26740;45.944;12.480;2023-07-31T10:22:30;0.20;;;0.10;;
40997;SDS011;26740;45.944;12.480;2023-07-31T10:24:55;0.65;;;0.10;;
40997;SDS011;26740;45.944;12.480;2023-07-31T10:29:48;0.32;;;0.10;;
40997;SDS011;26740;45.944;12.480;2023-07-31T10:32:14;0.30;;;0.10;;
40997;SDS011;26740;45.944;12.480;2023-07-31T10:34:41;0.25;;;0.10;;
40997;SDS011;26740;45.944;12.480;2023-07-31T10:37:27;1.17;;;0.20;;
40997;SDS011;26740;45.944;12.480;2023-07-31T10:39:56;1.73;;;0.38;;
40997;SDS011;26740;45.944;12.480;2023-07-31T10:42:29;0.25;;;0.10;;
40997;SDS011;26740;45.944;12.480;2023-07-31T10:44:58;0.90;;;0.20;;
40997;SDS011;26740;45.944;12.480;2023-07-31T10:47:24;0.13;;;0.10;;
40997;SDS011;26740;45.944;12.480;2023-07-31T10:49:49;1.08;;;0.20;;
40997;SDS011;26740;45.944;12.480;2023-07-31T10:52:19;0.15;;;0.10;;
40997;SDS011;26740;45.944;12.480;2023-07-31T10:54:47;0.13;;;0.10;;
40997;SDS011;26740;45.944;12.480;2023-07-31T10:57:22;0.20;;;0.20;;
40997;SDS011;26740;45.944;12.480;2023-07-31T10:59:48;0.63;;;0.15;;
40997;SDS011;26740;45.944;12.480;2023-07-31T11:02:25;0.20;;;0.13;;
40997;SDS011;26740;45.944;12.480;2023-07-31T11:05:10;0.25;;;0.17;;
40997;SDS011;26740;45.944;12.480;2023-07-31T11:07:48;0.13;;;0.10;;
40997;SDS011;26740;45.944;12.480;2023-07-31T11:10:17;0.20;;;0.15;;
40997;SDS011;26740;45.944;12.480;2023-07-31T11:12:43;0.10;;;0.10;;
40997;SDS011;26740;45.944;12.480;2023-07-31T11:15:09;0.40;;;0.20;;
40997;SDS011;26740;45.944;12.480;2023-07-31T11:17:39;1.20;;;0.20;;
40997;SDS011;26740;45.944;12.480;2023-07-31T11:20:05;2.08;;;0.20;;
40997;SDS011;26740;45.944;12.480;2023-07-31T11:22:31;0.20;;;0.20;;
40997;SDS011;26740;45.944;12.480;2023-07-31T11:24:56;1.40;;;0.10;;
40997;SDS011;26740;45.944;12.480;2023-07-31T11:27:23;1.25;;;0.10;;
40997;SDS011;26740;45.944;12.480;2023-07-31T11:29:52;1.75;;;0.20;;
40997;SDS011;26740;45.944;12.480;2023-07-31T11:32:17;1.55;;;0.15;;
40997;SDS011;26740;45.944;12.480;2023-07-31T11:34:52;0.63;;;0.15;;
40997;SDS011;26740;45.944;12.480;2023-07-31T11:37:18;2.58;;;0.20;;
40997;SDS011;26740;45.944;12.480;2023-07-31T11:39:43;0.20;;;0.20;;
40997;SDS011;26740;45.944;12.480;2023-07-31T11:42:08;1.42;;;0.20;;
40997;SDS011;26740;45.944;12.480;2023-07-31T11:44:38;0.68;;;0.25;;
40997;SDS011;26740;45.944;12.480;2023-07-31T11:47:03;0.30;;;0.20;;
40997;SDS011;26740;45.944;12.480;2023-07-31T11:49:29;0.80;;;0.30;;
40997;SDS011;26740;45.944;12.480;2023-07-31T11:51:54;0.20;;;0.20;;
40997;SDS011;26740;45.944;12.480;2023-07-31T11:54:20;0.30;;;0.20;;
40997;SDS011;26740;45.944;12.480;2023-07-31T11:56:45;0.20;;;0.10;;
40997;SDS011;26740;45.944;12.480;2023-07-31T11:59:11;0.73;;;0.20;;
40997;SDS011;26740;45.944;12.480;2023-07-31T12:01:37;0.50;;;0.20;;
40997;SDS011;26740;45.944;12.480;2023-07-31T12:04:05;1.50;;;0.30;;
40997;SDS011;26740;45.944;12.480;2023-07-31T12:06:37;0.15;;;0.10;;
40997;SDS011;26740;45.944;12.480;2023-07-31T12:09:05;3.13;;;0.20;;
40997;SDS011;26740;45.944;12.480;2023-07-31T12:11:30;0.10;;;0.10;;
40997;SDS011;26740;45.944;12.480;2023-07-31T12:13:56;0.47;;;0.20;;
40997;SDS011;26740;45.944;12.480;2023-07-31T12:16:22;0.20;;;0.20;;
40997;SDS011;26740;45.944;12.480;2023-07-31T12:21:16;2.07;;;0.20;;
40997;SDS011;26740;45.944;12.480;2023-07-31T12:23:43;0.73;;;0.15;;
40997;SDS011;26740;45.944;12.480;2023-07-31T12:26:10;0.35;;;0.10;;
40997;SDS011;26740;45.944;12.480;2023-07-31T12:28:42;0.65;;;0.20;;
40997;SDS011;26740;45.944;12.480;2023-07-31T12:31:09;0.90;;;0.13;;
40997;SDS011;26740;45.944;12.480;2023-07-31T12:33:35;0.47;;;0.10;;
40997;SDS011;26740;45.944;12.480;2023-07-31T12:36:02;0.20;;;0.20;;
40997;SDS011;26740;45.944;12.480;2023-07-31T12:38:28;0.30;;;0.10;;
40997;SDS011;26740;45.944;12.480;2023-07-31T12:40:53;0.20;;;0.20;;
40997;SDS011;26740;45.944;12.480;2023-07-31T12:43:19;0.40;;;0.10;;
40997;SDS011;26740;45.944;12.480;2023-07-31T12:45:44;0.20;;;0.10;;
40997;SDS011;26740;45.944;12.480;2023-07-31T12:48:09;0.20;;;0.15;;
40997;SDS011;26740;45.944;12.480;2023-07-31T12:50:35;0.30;;;0.10;;
40997;SDS011;26740;45.944;12.480;2023-07-31T12:53:02;0.20;;;0.10;;
40997;SDS011;26740;45.944;12.480;2023-07-31T12:55:28;0.20;;;0.17;;
40997;SDS011;26740;45.944;12.480;2023-07-31T12:57:53;0.20;;;0.10;;
40997;SDS011;26740;45.944;12.480;2023-07-31T13:00:19;0.20;;;0.10;;
40997;SDS011;26740;45.944;12.480;2023-07-31T13:02:44;0.22;;;0.20;;
40997;SDS011;26740;45.944;12.480;2023-07-31T13:05:10;0.20;;;0.10;;
40997;SDS011;26740;45.944;12.480;2023-07-31T13:07:35;2.70;;;0.20;;
40997;SDS011;26740;45.944;12.480;2023-07-31T13:10:01;0.32;;;0.20;;
40997;SDS011;26740;45.944;12.480;2023-07-31T13:12:26;0.47;;;0.20;;
40997;SDS011;26740;45.944;12.480;2023-07-31T13:14:52;1.25;;;0.20;;
40997;SDS011;26740;45.944;12.480;2023-07-31T13:17:17;0.20;;;0.20;;
40997;SDS011;26740;45.944;12.480;2023-07-31T13:19:43;1.52;;;0.20;;
40997;SDS011;26740;45.944;12.480;2023-07-31T13:22:08;0.10;;;0.10;;
40997;SDS011;26740;45.944;12.480;2023-07-31T13:24:34;1.35;;;0.10;;
40997;SDS011;26740;45.944;12.480;2023-07-31T13:26:59;0.28;;;0.20;;
40997;SDS011;26740;45.944;12.480;2023-07-31T13:29:24;0.68;;;0.20;;
40997;SDS011;26740;45.944;12.480;2023-07-31T13:31:50;0.80;;;0.40;;
40997;SDS011;26740;45.944;12.480;2023-07-31T13:34:15;0.28;;;0.10;;
40997;SDS011;26740;45.944;12.480;2023-07-31T13:44:26;1.10;;;0.10;;
40997;SDS011;26740;45.944;12.480;2023-07-31T13:46:51;0.75;;;0.10;;
40997;SDS011;26740;45.944;12.480;2023-07-31T13:49:17;0.20;;;0.10;;
40997;SDS011;26740;45.944;12.480;2023-07-31T13:51:42;2.00;;;0.20;;
40997;SDS011;26740;45.944;12.480;2023-07-31T13:54:08;1.27;;;0.20;;
40997;SDS011;26740;45.944;12.480;2023-07-31T13:56:33;1.30;;;0.17;;
40997;SDS011;26740;45.944;12.480;2023-07-31T13:58:59;0.10;;;0.10;;
40997;SDS011;26740;45.944;12.480;2023-07-31T14:01:26;0.20;;;0.10;;
40997;SDS011;26740;45.944;12.480;2023-07-31T14:03:51;1.23;;;0.10;;
40997;SDS011;26740;45.944;12.480;2023-07-31T14:06:17;0.10;;;0.10;;
40997;SDS011;26740;45.944;12.480;2023-07-31T14:08:42;0.38;;;0.10;;
40997;SDS011;26740;45.944;12.480;2023-07-31T14:11:07;0.82;;;0.10;;
40997;SDS011;26740;45.944;12.480;2023-07-31T14:13:33;1.23;;;0.17;;
40997;SDS011;26740;45.944;12.480;2023-07-31T14:15:58;0.30;;;0.10;;
40997;SDS011;26740;45.944;12.480;2023-07-31T14:18:24;1.65;;;0.20;;
40997;SDS011;26740;45.944;12.480;2023-07-31T14:20:49;0.25;;;0.13;;
40997;SDS011;26740;45.944;12.480;2023-07-31T14:23:14;0.40;;;0.20;;
40997;SDS011;26740;45.944;12.480;2023-07-31T14:25:40;0.75;;;0.10;;
40997;SDS011;26740;45.944;12.480;2023-07-31T14:28:06;2.72;;;0.20;;
40997;SDS011;26740;45.944;12.480;2023-07-31T14:30:31;0.40;;;0.20;;
40997;SDS011;26740;45.944;12.480;2023-07-31T14:32:57;1.45;;;0.13;;
40997;SDS011;26740;45.944;12.480;2023-07-31T14:35:22;0.70;;;0.20;;
40997;SDS011;26740;45.944;12.480;2023-07-31T14:37:48;0.55;;;0.20;;
40997;SDS011;26740;45.944;12.480;2023-07-31T14:40:13;0.43;;;0.20;;
40997;SDS011;26740;45.944;12.480;2023-07-31T14:42:39;0.40;;;0.20;;
40997;SDS011;26740;45.944;12.480;2023-07-31T14:45:05;0.60;;;0.10;;
40997;SDS011;26740;45.944;12.480;2023-07-31T14:47:30;1.67;;;0.10;;
40997;SDS011;26740;45.944;12.480;2023-07-31T14:49:57;0.20;;;0.10;;
40997;SDS011;26740;45.944;12.480;2023-07-31T14:52:22;0.20;;;0.10;;
40997;SDS011;26740;45.944;12.480;2023-07-31T14:54:48;0.17;;;0.17;;
40997;SDS011;26740;45.944;12.480;2023-07-31T14:57:13;0.50;;;0.15;;